createdAt,value
2019-04-14T00:01:41.041Z,23.97
2019-04-14T00:04:13.987Z,24.17
2019-04-14T00:06:42.514Z,23.70
2019-04-14T00:09:14.081Z,23.50
2019-04-14T00:11:40.988Z,22.60
2019-04-14T00:14:09.579Z,22.33
2019-04-14T00:16:38.030Z,21.73
2019-04-14T00:19:06.471Z,21.50
2019-04-14T00:21:34.608Z,20.57
2019-04-14T00:24:03.006Z,19.40
2019-04-14T00:26:31.651Z,20.00
2019-04-14T00:29:00.063Z,20.63
2019-04-14T00:31:28.607Z,20.60
2019-04-14T00:33:58.629Z,21.00
2019-04-14T00:36:45.964Z,20.60
2019-04-14T00:39:18.770Z,19.67
2019-04-14T00:41:55.625Z,23.50
2019-04-14T00:44:40.862Z,21.70
2019-04-14T00:47:22.079Z,23.03
2019-04-14T00:49:50.772Z,22.20
2019-04-14T00:52:18.965Z,22.00
2019-04-14T00:54:47.691Z,21.87
2019-04-14T00:57:15.876Z,23.90
2019-04-14T00:59:44.056Z,23.17
2019-04-14T01:02:12.396Z,23.07
2019-04-14T01:04:40.491Z,23.37
2019-04-14T01:07:08.767Z,23.07
2019-04-14T01:09:37.009Z,23.10
2019-04-14T01:12:04.581Z,25.60
2019-04-14T01:14:32.051Z,25.83
2019-04-14T01:17:00.456Z,23.30
2019-04-14T01:19:28.733Z,24.20
2019-04-14T01:21:56.696Z,25.20
2019-04-14T01:24:24.982Z,23.80
2019-04-14T01:26:52.888Z,25.13
2019-04-14T01:29:20.930Z,23.80
2019-04-14T01:31:49.341Z,24.70
2019-04-14T01:34:17.319Z,23.10
2019-04-14T01:36:45.313Z,24.67
2019-04-14T01:39:13.312Z,25.43
2019-04-14T01:41:41.104Z,26.13
2019-04-14T01:44:09.133Z,24.27
2019-04-14T01:46:37.381Z,25.87
2019-04-14T01:49:05.098Z,26.00
2019-04-14T01:51:50.755Z,26.30
2019-04-14T01:54:38.766Z,26.67
2019-04-14T01:57:15.400Z,26.77
2019-04-14T01:59:43.819Z,26.50
2019-04-14T02:02:14.155Z,26.23
2019-04-14T02:04:42.716Z,27.80
2019-04-14T02:07:10.829Z,27.87
2019-04-14T02:09:40.182Z,25.93
2019-04-14T02:12:08.469Z,28.13
2019-04-14T02:14:36.523Z,26.30
2019-04-14T02:17:04.959Z,28.13
2019-04-14T02:19:33.119Z,27.57
2019-04-14T02:22:00.714Z,25.93
2019-04-14T02:24:28.921Z,26.53
2019-04-14T02:26:56.985Z,26.10
2019-04-14T02:29:25.506Z,28.53
2019-04-14T02:33:13.523Z,26.00
2019-04-14T02:34:47.977Z,27.90
2019-04-14T02:39:54.043Z,26.60
2019-04-14T02:42:34.312Z,27.03
2019-04-14T02:44:43.979Z,26.90
2019-04-14T02:47:38.561Z,28.57
2019-04-14T02:49:45.596Z,25.97
2019-04-14T02:52:11.977Z,29.03
2019-04-14T02:57:20.457Z,27.07
2019-04-14T02:59:42.946Z,27.50
2019-04-14T03:10:16.378Z,26.23
2019-04-14T03:12:31.662Z,26.00
2019-04-14T03:14:53.700Z,25.00
2019-04-14T03:18:02.418Z,26.33
2019-04-14T03:20:49.951Z,25.37
2019-04-14T03:23:17.141Z,25.97
2019-04-14T03:25:34.307Z,25.00
2019-04-14T03:28:36.386Z,24.27
2019-04-14T03:31:30.483Z,25.20
2019-04-14T03:38:55.023Z,22.00
2019-04-14T03:41:13.698Z,24.27
2019-04-14T03:43:33.745Z,24.63
2019-04-14T03:51:00.673Z,25.67
2019-04-14T03:53:30.703Z,24.27
2019-04-14T03:56:14.012Z,23.80
2019-04-14T03:58:39.954Z,24.73
2019-04-14T04:01:08.268Z,24.50
2019-04-14T04:03:36.813Z,24.80
2019-04-14T04:06:05.280Z,23.30
2019-04-14T04:08:33.401Z,24.13
2019-04-14T04:11:02.091Z,23.27
2019-04-14T04:13:30.224Z,24.77
2019-04-14T04:16:12.094Z,23.50
2019-04-14T04:18:50.909Z,21.83
2019-04-14T04:21:18.510Z,21.90
2019-04-14T04:24:12.862Z,20.90
2019-04-14T04:26:56.053Z,20.97
2019-04-14T04:29:33.020Z,21.30
2019-04-14T04:32:07.811Z,22.20
2019-04-14T04:34:51.259Z,21.23
2019-04-14T04:37:41.177Z,19.70
2019-04-14T04:40:13.623Z,20.07
2019-04-14T04:42:41.633Z,21.20
2019-04-14T04:45:10.379Z,20.23
2019-04-14T04:47:38.363Z,19.30
2019-04-14T04:50:06.538Z,21.63
2019-04-14T04:52:34.353Z,22.03
2019-04-14T04:55:02.585Z,19.43
2019-04-14T04:57:30.634Z,19.30
2019-04-14T04:59:58.154Z,22.50
2019-04-14T05:02:26.670Z,21.10
2019-04-14T05:04:54.785Z,21.30
2019-04-14T05:07:23.111Z,19.63
2019-04-14T05:10:09.052Z,20.60
2019-04-14T05:12:48.532Z,21.57
2019-04-14T05:15:33.933Z,18.93
2019-04-14T05:18:02.729Z,20.03
2019-04-14T05:20:31.370Z,19.70
2019-04-14T05:22:59.371Z,21.63
2019-04-14T05:25:27.589Z,21.40
2019-04-14T05:27:55.849Z,21.30
2019-04-14T05:30:24.304Z,22.70
2019-04-14T05:32:52.226Z,21.00
2019-04-14T05:35:20.596Z,21.03
2019-04-14T05:37:48.666Z,20.50
2019-04-14T05:40:16.792Z,20.97
2019-04-14T05:42:45.085Z,20.33
2019-04-14T05:45:13.331Z,21.90
2019-04-14T05:47:41.489Z,19.27
2019-04-14T05:50:09.543Z,20.70
2019-04-14T05:52:38.162Z,21.90
2019-04-14T05:55:06.632Z,20.57
2019-04-14T05:57:35.300Z,19.40
2019-04-14T06:00:04.532Z,20.43
2019-04-14T06:02:32.149Z,18.63
2019-04-14T06:05:01.540Z,18.60
2019-04-14T06:07:28.924Z,19.50
2019-04-14T06:09:56.157Z,19.03
2019-04-14T06:12:23.349Z,18.57
2019-04-14T06:14:51.097Z,20.17
2019-04-14T06:17:18.872Z,18.70
2019-04-14T06:19:46.252Z,18.83
2019-04-14T06:22:13.765Z,18.00
2019-04-14T06:24:41.534Z,17.00
2019-04-14T06:27:08.968Z,19.07
2019-04-14T06:29:36.289Z,19.50
2019-04-14T06:32:25.578Z,17.33
2019-04-14T06:35:10.278Z,18.73
2019-04-14T06:37:57.148Z,17.20
2019-04-14T06:40:25.481Z,16.33
2019-04-14T06:42:52.802Z,16.80
2019-04-14T06:45:20.213Z,16.57
2019-04-14T06:47:47.681Z,18.53
2019-04-14T06:50:15.196Z,15.93
2019-04-14T06:52:42.580Z,17.87
2019-04-14T06:55:09.937Z,17.10
2019-04-14T06:57:37.240Z,16.87
2019-04-14T07:00:05.070Z,16.30
2019-04-14T07:02:32.560Z,16.00
2019-04-14T07:04:59.961Z,16.63
2019-04-14T07:07:27.368Z,15.13
2019-04-14T07:09:54.807Z,17.27
2019-04-14T07:12:22.337Z,16.67
2019-04-14T07:14:49.620Z,17.30
2019-04-14T07:17:17.422Z,17.80
2019-04-14T07:19:44.781Z,15.90
2019-04-14T07:22:12.000Z,16.67
2019-04-14T07:24:39.361Z,15.30
2019-04-14T07:27:07.353Z,16.03
2019-04-14T07:29:41.239Z,16.23
2019-04-14T07:32:18.578Z,16.90
2019-04-14T07:35:08.512Z,17.17
2019-04-14T07:37:58.250Z,15.70
2019-04-14T07:40:43.954Z,17.47
2019-04-14T07:43:29.385Z,18.23
2019-04-14T07:46:08.400Z,18.87
2019-04-14T07:48:41.833Z,17.03
2019-04-14T07:51:37.487Z,18.10
2019-04-14T07:54:20.222Z,19.30
2019-04-14T07:57:01.785Z,18.87
2019-04-14T07:59:49.206Z,18.57
2019-04-14T08:02:29.853Z,18.53
2019-04-14T08:05:01.202Z,21.20
2019-04-14T08:07:28.682Z,18.70
2019-04-14T08:09:56.038Z,19.97
2019-04-14T08:12:23.513Z,19.80
2019-04-14T08:14:52.054Z,19.87
2019-04-14T08:17:19.366Z,19.93
2019-04-14T08:19:46.632Z,20.63
2019-04-14T08:22:14.090Z,20.20
2019-04-14T08:24:41.305Z,21.43
2019-04-14T08:27:08.541Z,20.30
2019-04-14T08:29:35.848Z,23.03
2019-04-14T08:32:03.346Z,20.53
2019-04-14T08:34:30.685Z,20.73
2019-04-14T08:36:58.209Z,22.00
2019-04-14T08:39:25.505Z,23.23
2019-04-14T08:42:08.128Z,24.40
2019-04-14T08:44:43.314Z,23.50
2019-04-14T08:47:28.892Z,22.10
2019-04-14T08:50:00.006Z,21.33
2019-04-14T08:52:55.709Z,21.57
2019-04-14T08:55:32.068Z,23.73
2019-04-14T08:58:11.478Z,23.87
2019-04-14T09:00:58.426Z,23.40
2019-04-14T09:04:03.229Z,22.07
2019-04-14T09:06:37.334Z,23.73
2019-04-14T09:09:27.959Z,24.67
2019-04-14T09:12:01.028Z,23.37
2019-04-14T09:14:28.253Z,22.57
2019-04-14T09:16:56.359Z,23.43
2019-04-14T09:19:24.117Z,23.47
2019-04-14T09:21:51.333Z,23.40
2019-04-14T09:24:18.627Z,23.40
2019-04-14T09:26:45.861Z,22.53
2019-04-14T09:29:13.224Z,24.10
2019-04-14T09:31:40.569Z,25.13
2019-04-14T09:34:07.937Z,25.30
2019-04-14T09:36:35.287Z,27.57
2019-04-14T09:39:04.200Z,26.87
2019-04-14T09:41:31.481Z,25.77
2019-04-14T09:43:58.704Z,25.97
2019-04-14T09:46:25.911Z,29.27
2019-04-14T09:48:53.283Z,27.80
2019-04-14T09:51:20.504Z,27.23
2019-04-14T09:53:47.866Z,28.90
2019-04-14T09:56:15.216Z,30.63
2019-04-14T09:58:42.657Z,29.70
2019-04-14T10:01:10.041Z,31.83
2019-04-14T10:03:37.352Z,33.30
2019-04-14T10:06:04.881Z,31.80
2019-04-14T10:08:32.556Z,32.07
2019-04-14T10:10:59.872Z,31.30
2019-04-14T10:13:27.232Z,29.30
2019-04-14T10:15:54.604Z,30.63
2019-04-14T10:18:22.951Z,30.27
2019-04-14T10:20:50.234Z,31.80
2019-04-14T10:23:17.612Z,32.53
2019-04-14T10:25:45.206Z,31.20
2019-04-14T10:28:12.414Z,34.40
2019-04-14T10:30:39.842Z,31.07
2019-04-14T10:33:07.305Z,34.37
2019-04-14T10:35:34.523Z,35.70
2019-04-14T10:38:01.933Z,34.77
2019-04-14T10:40:29.471Z,34.00
2019-04-14T10:42:56.834Z,34.07
2019-04-14T10:45:24.061Z,34.47
2019-04-14T10:47:51.458Z,36.50
2019-04-14T10:50:30.145Z,37.43
2019-04-14T10:52:48.183Z,34.90
2019-04-14T10:55:15.473Z,37.57
2019-04-14T10:57:42.904Z,34.70
2019-04-14T11:00:13.517Z,36.93
2019-04-14T11:02:40.848Z,33.20
2019-04-14T11:05:08.557Z,34.77
2019-04-14T11:07:35.957Z,34.60
2019-04-14T11:10:04.184Z,36.57
2019-04-14T11:12:31.380Z,35.37
2019-04-14T11:14:58.784Z,34.57
2019-04-14T11:17:26.180Z,38.30
2019-04-14T11:19:54.380Z,37.03
2019-04-14T11:22:21.908Z,35.83
2019-04-14T11:24:49.137Z,37.67
2019-04-14T11:27:16.548Z,34.73
2019-04-14T11:29:44.213Z,35.20
2019-04-14T11:32:40.442Z,37.30
2019-04-14T11:35:24.106Z,37.93
2019-04-14T11:38:02.333Z,35.70
2019-04-14T11:40:34.697Z,37.73
2019-04-14T11:43:02.288Z,36.83
2019-04-14T11:45:29.532Z,39.43
2019-04-14T11:47:56.905Z,38.90
2019-04-14T11:50:24.260Z,40.23
2019-04-14T11:52:51.485Z,37.33
2019-04-14T11:55:18.696Z,38.90
2019-04-14T11:57:45.960Z,38.10
2019-04-14T12:00:33.103Z,36.63
2019-04-14T12:03:25.890Z,40.20
2019-04-14T12:06:12.958Z,40.97
2019-04-14T12:08:45.845Z,38.50
2019-04-14T12:11:13.247Z,39.03
2019-04-14T12:13:40.463Z,38.40
2019-04-14T12:16:07.841Z,44.27
2019-04-14T12:18:35.120Z,40.40
2019-04-14T12:21:02.533Z,42.70
2019-04-14T12:23:30.218Z,42.40
2019-04-14T12:26:05.242Z,40.43
2019-04-14T12:28:26.865Z,39.23
2019-04-14T12:30:55.386Z,41.57
2019-04-14T12:33:22.824Z,42.73
2019-04-14T12:35:50.065Z,43.20
2019-04-14T12:38:17.369Z,40.70
2019-04-14T12:40:44.727Z,42.77
2019-04-14T12:43:37.582Z,40.83
2019-04-14T12:46:30.501Z,42.40
2019-04-14T12:49:08.544Z,41.67
2019-04-14T12:51:39.165Z,40.37
2019-04-14T12:54:06.409Z,43.20
2019-04-14T12:56:33.788Z,40.00
2019-04-14T12:59:23.086Z,40.00
2019-04-14T13:01:57.892Z,36.90
2019-04-14T13:04:25.157Z,40.30
2019-04-14T13:06:52.419Z,40.53
2019-04-14T13:09:19.713Z,38.63
2019-04-14T13:11:47.082Z,39.90
2019-04-14T13:14:14.554Z,39.80
2019-04-14T13:16:41.860Z,38.37
2019-04-14T13:19:09.129Z,40.40
2019-04-14T13:21:36.454Z,39.03
2019-04-14T13:24:05.156Z,38.60
2019-04-14T13:26:32.813Z,40.03
2019-04-14T13:29:00.253Z,37.30
2019-04-14T13:31:27.932Z,38.77
2019-04-14T13:33:57.062Z,38.07
2019-04-14T13:36:24.344Z,39.17
2019-04-14T13:38:52.169Z,48.77
2019-04-14T13:41:19.668Z,41.13
2019-04-14T13:43:47.036Z,38.80
2019-04-14T13:46:14.349Z,40.13
2019-04-14T13:48:42.081Z,38.00
2019-04-14T13:51:09.723Z,39.77
2019-04-14T13:53:37.037Z,37.60
2019-04-14T13:56:04.317Z,38.40
2019-04-14T13:58:31.680Z,40.07
2019-04-14T14:00:59.005Z,39.13
2019-04-14T14:03:26.257Z,37.40
2019-04-14T14:05:53.573Z,38.60
2019-04-14T14:08:20.921Z,41.20
2019-04-14T14:10:48.271Z,39.90
2019-04-14T14:13:34.878Z,39.33
2019-04-14T14:16:16.258Z,36.90
2019-04-14T14:18:48.394Z,38.80
2019-04-14T14:21:40.773Z,41.37
2019-04-14T14:24:31.000Z,39.00
2019-04-14T14:26:58.613Z,40.20
2019-04-14T14:29:26.129Z,41.77
2019-04-14T14:31:53.961Z,41.87
2019-04-14T14:34:22.143Z,41.50
2019-04-14T14:36:49.603Z,39.37
2019-04-14T14:39:19.818Z,40.00
2019-04-14T14:41:47.161Z,39.93
2019-04-14T14:44:14.402Z,39.67
2019-04-14T14:46:57.277Z,39.97
2019-04-14T14:49:30.613Z,39.37
2019-04-14T14:52:05.344Z,39.33
2019-04-14T14:54:32.837Z,42.33
2019-04-14T14:57:00.105Z,41.20
2019-04-14T14:59:27.330Z,41.43
2019-04-14T15:01:54.679Z,40.23
2019-04-14T15:04:21.944Z,39.40
2019-04-14T15:06:49.447Z,41.23
2019-04-14T15:09:16.729Z,40.67
2019-04-14T15:11:44.261Z,41.37
2019-04-14T15:14:11.612Z,37.97
2019-04-14T15:16:38.945Z,41.37
2019-04-14T15:19:06.369Z,40.00
2019-04-14T15:21:33.605Z,38.80
2019-04-14T15:24:01.132Z,41.83
2019-04-14T15:26:28.677Z,38.80
2019-04-14T15:28:55.965Z,40.57
2019-04-14T15:31:23.302Z,37.20
2019-04-14T15:33:50.865Z,39.70
2019-04-14T15:36:18.086Z,37.80
2019-04-14T15:38:45.348Z,39.10
2019-04-14T15:41:12.659Z,40.13
2019-04-14T15:43:40.294Z,37.23
2019-04-14T15:46:07.657Z,37.37
2019-04-14T15:48:34.853Z,39.33
2019-04-14T15:51:02.236Z,36.67
2019-04-14T15:53:37.865Z,36.60
2019-04-14T15:55:59.412Z,37.23
2019-04-14T15:58:44.968Z,35.23
2019-04-14T16:01:30.291Z,34.33
2019-04-14T16:04:05.907Z,36.67
2019-04-14T16:06:58.485Z,35.70
2019-04-14T16:09:47.897Z,35.07
2019-04-14T16:12:25.134Z,35.80
2019-04-14T16:15:14.769Z,35.10
2019-04-14T16:17:47.397Z,36.47
2019-04-14T16:20:18.050Z,35.60
2019-04-14T16:22:45.317Z,33.80
2019-04-14T16:25:12.684Z,36.23
2019-04-14T16:28:02.415Z,37.50
2019-04-14T16:30:49.320Z,37.67
2019-04-14T16:33:30.736Z,38.23
2019-04-14T16:35:58.262Z,35.60
2019-04-14T16:38:25.639Z,36.80
2019-04-14T16:40:52.897Z,39.03
2019-04-14T16:43:20.134Z,38.00
2019-04-14T16:45:47.591Z,37.00
2019-04-14T16:48:15.149Z,36.80
2019-04-14T16:50:42.493Z,38.77
2019-04-14T16:53:20.628Z,36.37
2019-04-14T16:55:58.325Z,38.97
2019-04-14T16:58:31.034Z,38.47
2019-04-14T17:01:01.756Z,40.03
2019-04-14T17:03:29.251Z,42.77
2019-04-14T17:05:56.517Z,41.83
2019-04-14T17:08:23.994Z,39.80
2019-04-14T17:10:51.463Z,40.27
2019-04-14T17:13:18.881Z,42.90
2019-04-14T17:15:57.303Z,41.10
2019-04-14T17:18:44.159Z,40.37
2019-04-14T17:21:33.553Z,39.33
2019-04-14T17:24:16.378Z,41.43
2019-04-14T17:26:42.341Z,40.50
2019-04-14T17:29:23.822Z,43.80
2019-04-14T17:32:09.379Z,43.23
2019-04-14T17:34:43.217Z,45.07
2019-04-14T17:37:39.072Z,41.47
2019-04-14T17:40:18.885Z,42.60
2019-04-14T17:42:54.522Z,43.23
2019-04-14T17:45:42.445Z,46.50
2019-04-14T17:48:21.581Z,42.77
2019-04-14T17:50:54.077Z,40.47
2019-04-14T17:53:53.273Z,45.33
2019-04-14T17:56:28.581Z,47.03
2019-04-14T17:59:30.350Z,46.20
2019-04-14T18:02:23.280Z,43.37
2019-04-14T18:05:13.165Z,44.07
2019-04-14T18:07:48.205Z,48.67
2019-04-14T18:10:35.120Z,45.00
2019-04-14T18:13:10.897Z,44.20
2019-04-14T18:15:56.534Z,46.30
2019-04-14T18:18:30.889Z,46.73
2019-04-14T18:21:01.740Z,47.57
2019-04-14T18:23:29.009Z,45.97
2019-04-14T18:25:56.331Z,49.80
2019-04-14T18:28:33.840Z,48.80
2019-04-14T18:31:29.810Z,43.93
2019-04-14T18:34:07.659Z,45.90
2019-04-14T18:36:39.248Z,46.57
2019-04-14T18:39:30.213Z,49.40
2019-04-14T18:42:16.169Z,44.13
2019-04-14T18:44:52.491Z,47.33
2019-04-14T18:47:23.713Z,46.07
2019-04-14T18:50:13.540Z,50.20
2019-04-14T18:53:09.686Z,46.13
2019-04-14T18:55:42.828Z,48.30
2019-04-14T18:58:25.838Z,44.53
2019-04-14T19:00:58.541Z,47.43
2019-04-14T19:03:25.797Z,46.57
2019-04-14T19:05:53.184Z,47.00
2019-04-14T19:08:20.640Z,50.67
2019-04-14T19:11:01.665Z,49.10
2019-04-14T19:13:31.009Z,49.53
2019-04-14T19:16:05.770Z,45.40
2019-04-14T19:18:42.454Z,48.50
2019-04-14T19:21:22.213Z,49.80
2019-04-14T19:23:50.745Z,51.97
2019-04-14T19:26:18.325Z,54.83
2019-04-14T19:28:45.584Z,50.27
2019-04-14T19:31:14.160Z,49.73
2019-04-14T19:33:41.478Z,50.10
2019-04-14T19:36:08.903Z,47.87
2019-04-14T19:38:36.386Z,50.73
2019-04-14T19:41:06.216Z,47.93
2019-04-14T19:43:33.625Z,49.90
2019-04-14T19:46:01.172Z,46.80
2019-04-14T19:48:30.080Z,47.90
2019-04-14T19:50:57.626Z,50.73
2019-04-14T19:53:24.977Z,52.50
2019-04-14T19:55:52.370Z,52.73
2019-04-14T19:58:19.828Z,51.50
2019-04-14T20:00:47.576Z,51.40
2019-04-14T20:03:15.172Z,54.87
2019-04-14T20:05:42.580Z,55.27
2019-04-14T20:08:22.749Z,51.07
2019-04-14T20:10:50.157Z,53.10
2019-04-14T20:13:17.577Z,50.67
2019-04-14T20:16:00.483Z,55.80
2019-04-14T20:18:44.453Z,52.17
2019-04-14T20:21:16.868Z,51.20
2019-04-14T20:23:52.289Z,53.77
2019-04-14T20:26:51.402Z,54.43
2019-04-14T20:29:22.513Z,60.87
2019-04-14T20:32:00.664Z,54.70
2019-04-14T20:34:27.937Z,52.73
2019-04-14T20:36:55.294Z,53.87
2019-04-14T20:39:24.421Z,54.53
2019-04-14T20:41:51.769Z,52.90
2019-04-14T20:44:19.193Z,53.87
2019-04-14T20:46:46.539Z,52.93
2019-04-14T20:49:13.897Z,50.73
2019-04-14T20:51:41.248Z,52.60
2019-04-14T20:54:08.508Z,53.23
2019-04-14T20:56:35.760Z,55.17
2019-04-14T20:59:03.325Z,50.60
2019-04-14T21:01:32.808Z,50.60
2019-04-14T21:04:19.868Z,51.20
2019-04-14T21:06:54.641Z,48.30
2019-04-14T21:09:28.209Z,51.00
2019-04-14T21:11:59.876Z,51.50
2019-04-14T21:14:33.178Z,51.87
2019-04-14T21:17:05.993Z,54.37
2019-04-14T21:19:42.233Z,49.03
2019-04-14T21:22:22.991Z,50.10
2019-04-14T21:24:57.076Z,52.17
2019-04-14T21:27:35.933Z,51.57
2019-04-14T21:30:19.436Z,50.73
2019-04-14T21:33:12.125Z,54.20
2019-04-14T21:36:11.073Z,49.20
2019-04-14T21:39:00.953Z,49.13
2019-04-14T21:41:29.460Z,50.67
2019-04-14T21:43:56.767Z,53.50
2019-04-14T21:46:24.013Z,52.50
2019-04-14T21:48:51.212Z,50.80
2019-04-14T21:51:18.450Z,50.13
2019-04-14T21:53:46.857Z,52.10
2019-04-14T21:56:14.179Z,50.37
2019-04-14T21:59:13.229Z,50.77
2019-04-14T22:02:12.377Z,50.00
2019-04-14T22:04:58.045Z,49.80
2019-04-14T22:07:37.274Z,49.90
2019-04-14T22:10:31.937Z,55.07
2019-04-14T22:12:59.201Z,51.60
2019-04-14T22:15:26.445Z,49.20
2019-04-14T22:17:53.892Z,51.23
2019-04-14T22:20:21.242Z,51.20
2019-04-14T22:22:48.547Z,50.80
2019-04-14T22:25:15.856Z,50.27
2019-04-14T22:27:43.096Z,53.77
2019-04-14T22:30:10.823Z,50.40
2019-04-14T22:32:38.118Z,52.30
2019-04-14T22:35:05.643Z,52.80
2019-04-14T22:37:33.009Z,51.33
2019-04-14T22:40:00.364Z,49.07
2019-04-14T22:42:27.581Z,55.33
2019-04-14T22:44:55.028Z,48.30
2019-04-14T22:47:22.396Z,49.57
2019-04-14T22:49:49.652Z,49.20
2019-04-14T22:52:16.860Z,50.07
2019-04-14T22:54:44.221Z,50.10
2019-04-14T22:57:11.424Z,50.63
2019-04-14T22:59:38.633Z,51.60
2019-04-14T23:02:12.233Z,50.30
2019-04-14T23:04:45.600Z,48.33
2019-04-14T23:07:35.547Z,53.23
2019-04-14T23:10:19.484Z,50.70
2019-04-14T23:13:06.336Z,51.03
2019-04-14T23:15:55.572Z,50.03
2019-04-14T23:18:48.653Z,52.17
2019-04-14T23:21:30.816Z,49.63
2019-04-14T23:24:18.888Z,51.07
2019-04-14T23:26:52.246Z,51.40
2019-04-14T23:29:15.529Z,49.90
2019-04-14T23:31:42.913Z,50.50
2019-04-14T23:34:11.008Z,51.87
2019-04-14T23:36:38.308Z,50.63
2019-04-14T23:39:08.108Z,48.27
2019-04-14T23:41:35.345Z,49.43
2019-04-14T23:44:02.745Z,47.63
2019-04-14T23:46:29.990Z,50.00
2019-04-14T23:48:57.337Z,47.83
2019-04-14T23:51:24.816Z,50.67
2019-04-14T23:53:52.056Z,51.90
2019-04-14T23:56:19.248Z,48.90
2019-04-14T23:58:46.500Z,50.83
